Grange, Georgia
Current Conditions -  °F | °C
As of 2:35 PM on Thursday 30 Oct 2014 (Local Time) from KOKZ Reporting Station
Clear Clear  
Wind Chill: 70°   Ceiling: Unl
Heat Index: 70°   Visibility: 10mi
Dew Point: 46°   Wind: 5mph
Humidity: 42%   Direction: 40°NE
Pressure: 29.99"   Gusts: NA
Location:  33.028°N, 82.379°W
Report Text: KOKZ 301835Z AUTO 04004KT 10SM CLR 21/08 A2999 RMK AO2 T02130078
Loading
Personal Weather Stations






























Interactive Weather Map
Tropical Storm Tracking
New forecast layout! Learn more

10-Day Weather Forecast

Advertisements
Track Severe Weather on mobile